Kapitan Kyuseling — UVLH — position and weather

sailwx.info

Track history (hours):
 
Tides and Currents Weather Stations Pressure Air Temp Water Temp Dewpoint Dewpoint Depression Visibility Wind Speed Wind Dir Waves Ship Positions

Kapitan Kyuseling

Last reported at 2017-Nov-16 05:29 UTC. Time now 2017-Nov-23 18:15 UTC.
Position N 43°51' E 023°22'.

Length 181 m; draft 1.5 m.

Type: Ship. MMSI: 272040300.

Date/timePositionNaut miles runAvg speedWind from/ knotsBaromVisibWave heightAir tempDewpointWater temp
2017-Nov-16 05:29N 43°51' E 023°22'3 6.6
2017-Nov-16 05:00N 43°51' E 023°18'3 6.4
2017-Nov-16 04:30N 43°50' E 023°14'3 6.8
2017-Nov-16 04:00N 43°49' E 023°09'3 6.8
2017-Nov-16 03:30N 43°48' E 023°05'3 6.8
2017-Nov-16 03:00N 43°48' E 023°00'3 6.6
2017-Nov-16 02:30N 43°49' E 022°56'3 6.6
2017-Nov-16 02:00N 43°51' E 022°51'3 6.5
2017-Nov-16 01:30N 43°54' E 022°51'3 6.6
2017-Nov-16 01:00N 43°57' E 022°52'3 6.3
2017-Nov-16 00:30N 43°60' E 022°54'3 6.9
2017-Nov-16 00:00N 44°00' E 022°59'3 6.3
2017-Nov-15 23:30N 44°03' E 023°02'3 5.7
2017-Nov-15 23:00N 44°05' E 023°01'3 6.5
2017-Nov-15 22:30N 44°06' E 022°56'3 6.6
2017-Nov-15 22:00N 44°08' E 022°53'3 6.7
2017-Nov-15 21:30N 44°09' E 022°49'3 6.7
2017-Nov-15 21:00N 44°12' E 022°45'3 6.7
2017-Nov-15 20:30N 44°13' E 022°41'3 6.8
2017-Nov-15 20:00N 44°16' E 022°41'3 6.7
2017-Nov-15 19:30N 44°18' E 022°37'2 4.9
2017-Nov-15 19:00N 44°19' E 022°34'0 0.2
2017-Nov-15 18:30N 44°19' E 022°34'2 3.0
2017-Nov-15 17:52N 44°20' E 022°32'2 6.1
2017-Nov-15 17:30N 44°22' E 022°31'3 5.8
2017-Nov-15 17:00N 44°25' E 022°30'3 5.9
2017-Nov-15 16:31N 44°28' E 022°27'2 4.3
2017-Nov-15 16:00N 44°28' E 022°30'3 5.0
2017-Nov-15 15:23N 44°31' E 022°34'2 5.8
2017-Nov-15 15:00N 44°33' E 022°34'3 5.6
2017-Nov-15 14:30N 44°33' E 022°38'3 6.0
2017-Nov-15 14:01N 44°31' E 022°42'3 6.4
2017-Nov-15 13:30N 44°33' E 022°46'3 6.1
2017-Nov-15 13:01N 44°35' E 022°44'3 5.9
2017-Nov-15 12:31N 44°37' E 022°40'3 6.0
2017-Nov-15 12:00N 44°37' E 022°36'3 6.5
2017-Nov-15 11:31N 44°39' E 022°33'1 1.8
2017-Nov-15 11:01N 44°40' E 022°32'0 0.4
2017-Nov-15 10:30N 44°40' E 022°31'0 0.0
2017-Nov-15 10:00N 44°40' E 022°31'0 0.9
2017-Nov-15 09:31N 44°40' E 022°31'1 2.9
2017-Nov-15 09:01N 44°42' E 022°30'0 0.7
2017-Nov-15 08:30N 44°42' E 022°29'0 0.0
2017-Nov-15 08:01N 44°42' E 022°29'0 0.8
2017-Nov-15 07:31N 44°42' E 022°29'2 4.7
2017-Nov-15 07:00N 44°43' E 022°26'3 5.2
2017-Nov-15 06:30N 44°41' E 022°23'3 5.1
2017-Nov-15 06:00N 44°40' E 022°19'8 5.1
2017-Nov-15 04:24N 44°33' E 022°14'3 5.4
2017-Nov-15 03:48N 44°30' E 022°12'2 5.0
2017-Nov-15 03:26N 44°29' E 022°11'2 5.0
2017-Nov-15 03:01N 44°29' E 022°08'3 5.2
2017-Nov-15 02:31N 44°30' E 022°05'3 5.3
2017-Nov-15 02:01N 44°33' E 022°03'4 5.2
2017-Nov-15 01:20N 44°36' E 022°01'14 5.5
2017-Nov-14 22:43N 44°40' E 021°42'1 4.8
2017-Nov-14 22:31N 44°40' E 021°41'3 5.3
2017-Nov-14 21:53N 44°43' E 021°37'3 5.8
2017-Nov-14 21:25N 44°45' E 021°36'2 6.1
2017-Nov-14 21:01N 44°46' E 021°33'1 2.6
2017-Nov-14 20:31N 44°46' E 021°31'0 0.1
2017-Nov-14 17:45N 44°46' E 021°31'0 1.0
2017-Nov-14 17:29N 44°46' E 021°31'1 1.1
2017-Nov-14 17:00N 44°46' E 021°30'15 5.0
2017-Nov-14 14:03N 44°45' E 021°10'2 5.9
2017-Nov-14 13:40N 44°44' E 021°07'1 6.2
2017-Nov-14 13:30N 44°43' E 021°05'3 6.0
2017-Nov-14 13:00N 44°43' E 021°01'3 5.6
2017-Nov-14 12:30N 44°42' E 020°58'0 0.3
2017-Nov-14 12:00N 44°42' E 020°57'0 0.0
2017-Nov-14 11:30N 44°42' E 020°57'2 1.1
2017-Nov-14 09:19N 44°40' E 020°55'2 4.5
2017-Nov-14 08:50N 44°42' E 020°57'0 0.6
2017-Nov-14 08:25N 44°42' E 020°57'0 0.0
2017-Nov-14 07:58N 44°42' E 020°57'0 0.0
2017-Nov-14 07:28N 44°42' E 020°57'0 0.0
2017-Nov-14 06:58N 44°42' E 020°57'0 0.0
2017-Nov-14 06:28N 44°42' E 020°57'0 0.0
2017-Nov-14 05:58N 44°42' E 020°57'0 0.0
2017-Nov-14 05:28N 44°42' E 020°57'0 0.0
2017-Nov-14 04:58N 44°42' E 020°57'0 0.0
2017-Nov-14 04:25N 44°42' E 020°57'0 0.0
2017-Nov-14 03:52N 44°42' E 020°57'0 0.0
2017-Nov-14 03:28N 44°42' E 020°57'0 0.0
2017-Nov-14 02:58N 44°42' E 020°57'0 0.0
2017-Nov-14 02:19N 44°42' E 020°57'0 0.0
2017-Nov-14 01:58N 44°42' E 020°57'0 0.0
2017-Nov-14 01:28N 44°42' E 020°57'0 0.0
2017-Nov-14 00:58N 44°42' E 020°57'0 0.0
2017-Nov-14 00:25N 44°42' E 020°57'0 0.0
2017-Nov-13 23:58N 44°42' E 020°57'0 0.0
2017-Nov-13 23:19N 44°42' E 020°57'0 0.0
2017-Nov-13 22:57N 44°42' E 020°57'0 0.0
2017-Nov-13 22:30N 44°42' E 020°57'0 0.0
2017-Nov-13 21:57N 44°42' E 020°57'1 0.1
2017-Nov-12 21:52N 44°43' E 020°59'1 3.0
2017-Nov-12 21:30N 44°43' E 021°00'0 0.9
2017-Nov-12 20:59N 44°43' E 021°01'0 0.1
2017-Nov-12 20:31N 44°43' E 021°01'3 1.8
2017-Nov-12 18:36N 44°43' E 021°06'3 2.6
2017-Nov-12 17:29N 44°45' E 021°09'1 2.6
2017-Nov-12 16:59N 44°46' E 021°11'1 2.7
2017-Nov-12 16:27N 44°46' E 021°12'9 2.9
2017-Nov-12 13:14N 44°46' E 021°25'1 3.6
2017-Nov-12 12:59N 44°47' E 021°27'2 3.4
2017-Nov-12 12:31N 44°46' E 021°29'1 2.6
2017-Nov-12 12:00N 44°46' E 021°31'0 0.1
2017-Nov-12 06:59N 44°46' E 021°31'0 0.4
2017-Nov-12 06:30N 44°46' E 021°31'2 3.7
2017-Nov-12 06:00N 44°46' E 021°33'2 3.6
2017-Nov-12 05:30N 44°45' E 021°36'1 2.9
2017-Nov-12 05:00N 44°44' E 021°36'0 0.1
2017-Nov-12 04:30N 44°44' E 021°36'0 0.0
2017-Nov-12 04:00N 44°44' E 021°36'0 0.0
2017-Nov-12 03:30N 44°44' E 021°36'0 0.0
2017-Nov-12 03:00N 44°44' E 021°36'0 0.0
2017-Nov-12 02:30N 44°44' E 021°36'0 0.0
2017-Nov-12 02:00N 44°44' E 021°36'0 0.0
2017-Nov-12 01:30N 44°44' E 021°36'0 0.0
2017-Nov-12 01:00N 44°44' E 021°36'0 0.0
2017-Nov-12 00:30N 44°44' E 021°36'0 0.0
2017-Nov-12 00:00N 44°44' E 021°36'0 0.0
2017-Nov-11 23:30N 44°44' E 021°36'0 0.0
2017-Nov-11 23:00N 44°44' E 021°36'0 0.0
2017-Nov-11 22:30N 44°44' E 021°36'0 0.0
2017-Nov-11 22:00N 44°44' E 021°36'0 0.0
2017-Nov-11 21:29N 44°44' E 021°36'0 0.0
2017-Nov-11 20:59N 44°44' E 021°36'0 0.0
2017-Nov-11 20:29N 44°44' E 021°36'0 0.0
2017-Nov-11 19:59N 44°44' E 021°36'0 0.0
2017-Nov-11 19:29N 44°44' E 021°36'0 0.0
2017-Nov-11 18:59N 44°44' E 021°36'0 0.0
2017-Nov-11 18:29N 44°44' E 021°36'0 0.0
2017-Nov-11 17:59N 44°44' E 021°36'0 0.1
2017-Nov-11 17:31N 44°44' E 021°36'1 3.0
2017-Nov-11 17:00N 44°43' E 021°38'2 3.4
2017-Nov-11 16:31N 44°41' E 021°39'2 3.6
2017-Nov-11 16:00N 44°40' E 021°41'14 3.2
2017-Nov-11 11:28N 44°36' E 022°01'2 3.6
2017-Nov-11 11:00N 44°35' E 022°02'2 3.8
2017-Nov-11 10:30N 44°33' E 022°02'2 4.0
2017-Nov-11 10:00N 44°32' E 022°04'2 3.9
2017-Nov-11 09:30N 44°30' E 022°05'2 4.0
2017-Nov-11 09:00N 44°29' E 022°08'2 4.0
2017-Nov-11 08:30N 44°28' E 022°10'2 3.8
2017-Nov-11 08:00N 44°30' E 022°12'3 4.1
2017-Nov-11 07:10N 44°33' E 022°14'1 4.3
2017-Nov-11 07:00N 44°34' E 022°14'6 4.1
2017-Nov-11 05:30N 44°39' E 022°18'4 4.2
2017-Nov-11 04:40N 44°41' E 022°23'1 4.7
2017-Nov-11 04:30N 44°41' E 022°24'2 4.5
2017-Nov-11 04:00N 44°43' E 022°26'2 4.0
2017-Nov-11 03:30N 44°42' E 022°29'2 4.4
2017-Nov-11 03:00N 44°41' E 022°31'1 1.6
2017-Nov-11 02:30N 44°40' E 022°31'0 0.3
2017-Nov-11 02:00N 44°40' E 022°32'0 0.0
2017-Nov-11 01:30N 44°40' E 022°32'0 0.1
2017-Nov-11 01:00N 44°40' E 022°32'0 0.4
2017-Nov-11 00:20N 44°40' E 022°32'0 0.0
2017-Nov-11 00:00N 44°40' E 022°32'1 1.6
2017-Nov-10 23:31N 44°39' E 022°33'0 0.2
2017-Nov-10 23:00N 44°39' E 022°33'0 0.0
2017-Nov-10 22:30N 44°39' E 022°33'0 0.0
2017-Nov-10 22:00N 44°39' E 022°33'0 0.0
2017-Nov-10 21:30N 44°39' E 022°33'0 0.0
2017-Nov-10 21:00N 44°39' E 022°33'0 0.0
2017-Nov-10 20:30N 44°39' E 022°33'0 0.0
2017-Nov-10 20:00N 44°39' E 022°33'0 0.0
2017-Nov-10 19:31N 44°39' E 022°33'1 1.3
2017-Nov-10 19:01N 44°39' E 022°33'2 3.1
2017-Nov-10 18:31N 44°38' E 022°35'1 1.4
2017-Nov-10 18:01N 44°38' E 022°36'1 2.8
2017-Nov-10 17:31N 44°37' E 022°38'2 3.2
2017-Nov-10 17:01N 44°37' E 022°40'2 3.5
2017-Nov-10 16:31N 44°36' E 022°42'2 3.6
2017-Nov-10 16:01N 44°35' E 022°44'2 3.7
2017-Nov-10 15:30N 44°34' E 022°45'2 3.2
2017-Nov-10 15:01N 44°32' E 022°45'2 3.3
2017-Nov-10 14:31N 44°31' E 022°43'2 3.4
2017-Nov-10 14:01N 44°31' E 022°41'2 3.8
2017-Nov-10 13:31N 44°32' E 022°38'2 3.6
2017-Nov-10 12:58N 44°33' E 022°36'2 3.6
2017-Nov-10 12:30N 44°32' E 022°34'2 4.0
2017-Nov-10 12:00N 44°30' E 022°34'2 3.9
2017-Nov-10 11:30N 44°29' E 022°32'2 4.0
2017-Nov-10 11:00N 44°29' E 022°29'1 2.7
2017-Nov-10 10:30N 44°28' E 022°28'2 4.0
2017-Nov-10 10:01N 44°26' E 022°29'2 3.9
2017-Nov-10 09:31N 44°24' E 022°30'2 3.9
2017-Nov-10 09:01N 44°22' E 022°31'2 4.0
2017-Nov-10 08:30N 44°20' E 022°32'2 4.0
2017-Nov-10 08:01N 44°19' E 022°33'1 1.8
2017-Nov-10 07:31N 44°18' E 022°34'0 0.4
2017-Nov-10 07:01N 44°18' E 022°34'1 2.0
2017-Nov-10 06:31N 44°18' E 022°36'2 3.0
2017-Nov-10 06:01N 44°17' E 022°38'1 2.8
2017-Nov-10 05:31N 44°17' E 022°40'2 2.9
2017-Nov-10 04:57N 44°16' E 022°41'1 3.2
2017-Nov-10 04:31N 44°15' E 022°41'1 2.9
2017-Nov-10 04:01N 44°13' E 022°40'1 2.7
2017-Nov-10 03:30N 44°12' E 022°42'1 2.9
2017-Nov-10 03:01N 44°12' E 022°44'1 2.3
2017-Nov-10 02:31N 44°11' E 022°45'1 2.8
2017-Nov-10 02:01N 44°11' E 022°47'2 3.4
2017-Nov-10 01:31N 44°09' E 022°48'2 3.2
2017-Nov-10 01:01N 44°09' E 022°50'1 2.8
2017-Nov-10 00:30N 44°08' E 022°52'2 3.1
2017-Nov-10 00:00N 44°07' E 022°54'1 2.6
2017-Nov-09 23:31N 44°06' E 022°55'1 2.6
2017-Nov-09 23:01N 44°06' E 022°57'2 3.2
2017-Nov-09 22:30N 44°06' E 022°59'2 3.2
2017-Nov-09 22:01N 44°05' E 023°01'2 3.0
2017-Nov-09 21:30N 44°04' E 023°03'1 2.8
2017-Nov-09 21:01N 44°03' E 023°02'1 2.7
2017-Nov-09 20:30N 44°02' E 023°02'1 2.6
2017-Nov-09 20:01N 44°01' E 023°01'1 2.9
2017-Nov-09 19:31N 44°00' E 022°59'1 2.9
2017-Nov-09 19:00N 44°00' E 022°57'1 2.9
2017-Nov-09 18:31N 43°60' E 022°55'1 2.9
2017-Nov-09 18:00N 43°59' E 022°53'2 3.2
2017-Nov-09 17:31N 43°57' E 022°52'2 3.4
2017-Nov-09 17:01N 43°56' E 022°52'1 2.4
2017-Nov-09 16:29N 43°55' E 022°51'1 2.4
2017-Nov-09 16:01N 43°54' E 022°51'1 2.9
2017-Nov-09 15:30N 43°52' E 022°51'2 3.0
2017-Nov-09 15:01N 43°51' E 022°51'2 3.5
2017-Nov-09 14:30N 43°50' E 022°54'2 3.3
2017-Nov-09 14:00N 43°49' E 022°56'2 3.1
2017-Nov-09 13:31N 43°49' E 022°58'1 2.9
2017-Nov-09 13:01N 43°49' E 022°60'2 3.1
2017-Nov-09 12:29N 43°48' E 023°02'1 2.5
2017-Nov-09 11:59N 43°48' E 023°04'2 2.4
2017-Nov-09 11:06N 43°48' E 023°07'0 2.9
2017-Nov-09 11:00N 43°48' E 023°07'4 2.0
2017-Nov-09 08:53N 43°50' E 023°12'1 2.0
2017-Nov-09 08:29N 43°50' E 023°13'0 0.2
2017-Nov-09 08:01N 43°50' E 023°13'0 0.3
2017-Nov-09 06:37N 43°50' E 023°14'0 0.3
2017-Nov-09 06:24N 43°50' E 023°14'1 0.2
2017-Nov-08 23:06N 43°50' E 023°12'0 2.4
2017-Nov-08 23:00N 43°50' E 023°13'1 2.3
2017-Nov-08 22:28N 43°50' E 023°14'1 2.1
2017-Nov-08 21:57N 43°51' E 023°16'0 0.1
2017-Nov-08 21:30N 43°51' E 023°16'1 2.1
2017-Nov-08 21:00N 43°51' E 023°17'1 2.5
2017-Nov-08 20:30N 43°51' E 023°19'1 2.8
2017-Nov-08 20:00N 43°51' E 023°21'1 2.8
2017-Nov-08 19:28N 43°51' E 023°23'1 2.7
2017-Nov-08 19:00N 43°51' E 023°25'  
Track history (hours):
 
Tides and Currents Weather Stations Pressure Air Temp Water Temp Dewpoint Dewpoint Depression Visibility Wind Speed Wind Dir Waves Ship Positions

Kapitan Kyuseling

Last reported at 2017-Nov-16 05:29 UTC. Time now 2017-Nov-23 18:15 UTC.
Position N 43°51' E 023°22'.

Length 181 m; draft 1.5 m.

Type: Ship. MMSI: 272040300.

Date/timePositionNaut miles runAvg speedWind from/ knotsBaromVisibWave heightAir tempDewpointWater temp
2017-Nov-16 05:29N 43°51' E 023°22'3 6.6
2017-Nov-16 05:00N 43°51' E 023°18'3 6.4
2017-Nov-16 04:30N 43°50' E 023°14'3 6.8
2017-Nov-16 04:00N 43°49' E 023°09'3 6.8
2017-Nov-16 03:30N 43°48' E 023°05'3 6.8
2017-Nov-16 03:00N 43°48' E 023°00'3 6.6
2017-Nov-16 02:30N 43°49' E 022°56'3 6.6
2017-Nov-16 02:00N 43°51' E 022°51'3 6.5
2017-Nov-16 01:30N 43°54' E 022°51'3 6.6
2017-Nov-16 01:00N 43°57' E 022°52'3 6.3
2017-Nov-16 00:30N 43°60' E 022°54'3 6.9
2017-Nov-16 00:00N 44°00' E 022°59'3 6.3
2017-Nov-15 23:30N 44°03' E 023°02'3 5.7
2017-Nov-15 23:00N 44°05' E 023°01'3 6.5
2017-Nov-15 22:30N 44°06' E 022°56'3 6.6
2017-Nov-15 22:00N 44°08' E 022°53'3 6.7
2017-Nov-15 21:30N 44°09' E 022°49'3 6.7
2017-Nov-15 21:00N 44°12' E 022°45'3 6.7
2017-Nov-15 20:30N 44°13' E 022°41'3 6.8
2017-Nov-15 20:00N 44°16' E 022°41'3 6.7
2017-Nov-15 19:30N 44°18' E 022°37'2 4.9
2017-Nov-15 19:00N 44°19' E 022°34'0 0.2
2017-Nov-15 18:30N 44°19' E 022°34'2 3.0
2017-Nov-15 17:52N 44°20' E 022°32'2 6.1
2017-Nov-15 17:30N 44°22' E 022°31'3 5.8
2017-Nov-15 17:00N 44°25' E 022°30'3 5.9
2017-Nov-15 16:31N 44°28' E 022°27'2 4.3
2017-Nov-15 16:00N 44°28' E 022°30'3 5.0
2017-Nov-15 15:23N 44°31' E 022°34'2 5.8
2017-Nov-15 15:00N 44°33' E 022°34'3 5.6
2017-Nov-15 14:30N 44°33' E 022°38'3 6.0
2017-Nov-15 14:01N 44°31' E 022°42'3 6.4
2017-Nov-15 13:30N 44°33' E 022°46'3 6.1
2017-Nov-15 13:01N 44°35' E 022°44'3 5.9
2017-Nov-15 12:31N 44°37' E 022°40'3 6.0
2017-Nov-15 12:00N 44°37' E 022°36'3 6.5
2017-Nov-15 11:31N 44°39' E 022°33'1 1.8
2017-Nov-15 11:01N 44°40' E 022°32'0 0.4
2017-Nov-15 10:30N 44°40' E 022°31'0 0.0
2017-Nov-15 10:00N 44°40' E 022°31'0 0.9
2017-Nov-15 09:31N 44°40' E 022°31'1 2.9
2017-Nov-15 09:01N 44°42' E 022°30'0 0.7
2017-Nov-15 08:30N 44°42' E 022°29'0 0.0
2017-Nov-15 08:01N 44°42' E 022°29'0 0.8
2017-Nov-15 07:31N 44°42' E 022°29'2 4.7
2017-Nov-15 07:00N 44°43' E 022°26'3 5.2
2017-Nov-15 06:30N 44°41' E 022°23'3 5.1
2017-Nov-15 06:00N 44°40' E 022°19'8 5.1
2017-Nov-15 04:24N 44°33' E 022°14'3 5.4
2017-Nov-15 03:48N 44°30' E 022°12'2 5.0
2017-Nov-15 03:26N 44°29' E 022°11'2 5.0
2017-Nov-15 03:01N 44°29' E 022°08'3 5.2
2017-Nov-15 02:31N 44°30' E 022°05'3 5.3
2017-Nov-15 02:01N 44°33' E 022°03'4 5.2
2017-Nov-15 01:20N 44°36' E 022°01'14 5.5
2017-Nov-14 22:43N 44°40' E 021°42'1 4.8
2017-Nov-14 22:31N 44°40' E 021°41'3 5.3
2017-Nov-14 21:53N 44°43' E 021°37'3 5.8
2017-Nov-14 21:25N 44°45' E 021°36'2 6.1
2017-Nov-14 21:01N 44°46' E 021°33'1 2.6
2017-Nov-14 20:31N 44°46' E 021°31'0 0.1
2017-Nov-14 17:45N 44°46' E 021°31'0 1.0
2017-Nov-14 17:29N 44°46' E 021°31'1 1.1
2017-Nov-14 17:00N 44°46' E 021°30'15 5.0
2017-Nov-14 14:03N 44°45' E 021°10'2 5.9
2017-Nov-14 13:40N 44°44' E 021°07'1 6.2
2017-Nov-14 13:30N 44°43' E 021°05'3 6.0
2017-Nov-14 13:00N 44°43' E 021°01'3 5.6
2017-Nov-14 12:30N 44°42' E 020°58'0 0.3
2017-Nov-14 12:00N 44°42' E 020°57'0 0.0
2017-Nov-14 11:30N 44°42' E 020°57'2 1.1
2017-Nov-14 09:19N 44°40' E 020°55'2 4.5
2017-Nov-14 08:50N 44°42' E 020°57'0 0.6
2017-Nov-14 08:25N 44°42' E 020°57'0 0.0
2017-Nov-14 07:58N 44°42' E 020°57'0 0.0
2017-Nov-14 07:28N 44°42' E 020°57'0 0.0
2017-Nov-14 06:58N 44°42' E 020°57'0 0.0
2017-Nov-14 06:28N 44°42' E 020°57'0 0.0
2017-Nov-14 05:58N 44°42' E 020°57'0 0.0
2017-Nov-14 05:28N 44°42' E 020°57'0 0.0
2017-Nov-14 04:58N 44°42' E 020°57'0 0.0
2017-Nov-14 04:25N 44°42' E 020°57'0 0.0
2017-Nov-14 03:52N 44°42' E 020°57'0 0.0
2017-Nov-14 03:28N 44°42' E 020°57'0 0.0
2017-Nov-14 02:58N 44°42' E 020°57'0 0.0
2017-Nov-14 02:19N 44°42' E 020°57'0 0.0
2017-Nov-14 01:58N 44°42' E 020°57'0 0.0
2017-Nov-14 01:28N 44°42' E 020°57'0 0.0
2017-Nov-14 00:58N 44°42' E 020°57'0 0.0
2017-Nov-14 00:25N 44°42' E 020°57'0 0.0
2017-Nov-13 23:58N 44°42' E 020°57'0 0.0
2017-Nov-13 23:19N 44°42' E 020°57'0 0.0
2017-Nov-13 22:57N 44°42' E 020°57'0 0.0
2017-Nov-13 22:30N 44°42' E 020°57'0 0.0
2017-Nov-13 21:57N 44°42' E 020°57'1 0.1
2017-Nov-12 21:52N 44°43' E 020°59'1 3.0
2017-Nov-12 21:30N 44°43' E 021°00'0 0.9
2017-Nov-12 20:59N 44°43' E 021°01'0 0.1
2017-Nov-12 20:31N 44°43' E 021°01'3 1.8
2017-Nov-12 18:36N 44°43' E 021°06'3 2.6
2017-Nov-12 17:29N 44°45' E 021°09'1 2.6
2017-Nov-12 16:59N 44°46' E 021°11'1 2.7
2017-Nov-12 16:27N 44°46' E 021°12'9 2.9
2017-Nov-12 13:14N 44°46' E 021°25'1 3.6
2017-Nov-12 12:59N 44°47' E 021°27'2 3.4
2017-Nov-12 12:31N 44°46' E 021°29'1 2.6
2017-Nov-12 12:00N 44°46' E 021°31'0 0.1
2017-Nov-12 06:59N 44°46' E 021°31'0 0.4
2017-Nov-12 06:30N 44°46' E 021°31'2 3.7
2017-Nov-12 06:00N 44°46' E 021°33'2 3.6
2017-Nov-12 05:30N 44°45' E 021°36'1 2.9
2017-Nov-12 05:00N 44°44' E 021°36'0 0.1
2017-Nov-12 04:30N 44°44' E 021°36'0 0.0
2017-Nov-12 04:00N 44°44' E 021°36'0 0.0
2017-Nov-12 03:30N 44°44' E 021°36'0 0.0
2017-Nov-12 03:00N 44°44' E 021°36'0 0.0
2017-Nov-12 02:30N 44°44' E 021°36'0 0.0
2017-Nov-12 02:00N 44°44' E 021°36'0 0.0
2017-Nov-12 01:30N 44°44' E 021°36'0 0.0
2017-Nov-12 01:00N 44°44' E 021°36'0 0.0
2017-Nov-12 00:30N 44°44' E 021°36'0 0.0
2017-Nov-12 00:00N 44°44' E 021°36'0 0.0
2017-Nov-11 23:30N 44°44' E 021°36'0 0.0
2017-Nov-11 23:00N 44°44' E 021°36'0 0.0
2017-Nov-11 22:30N 44°44' E 021°36'0 0.0
2017-Nov-11 22:00N 44°44' E 021°36'0 0.0
2017-Nov-11 21:29N 44°44' E 021°36'0 0.0
2017-Nov-11 20:59N 44°44' E 021°36'0 0.0
2017-Nov-11 20:29N 44°44' E 021°36'0 0.0
2017-Nov-11 19:59N 44°44' E 021°36'0 0.0
2017-Nov-11 19:29N 44°44' E 021°36'0 0.0
2017-Nov-11 18:59N 44°44' E 021°36'0 0.0
2017-Nov-11 18:29N 44°44' E 021°36'0 0.0
2017-Nov-11 17:59N 44°44' E 021°36'0 0.1
2017-Nov-11 17:31N 44°44' E 021°36'1 3.0
2017-Nov-11 17:00N 44°43' E 021°38'2 3.4
2017-Nov-11 16:31N 44°41' E 021°39'2 3.6
2017-Nov-11 16:00N 44°40' E 021°41'14 3.2
2017-Nov-11 11:28N 44°36' E 022°01'2 3.6
2017-Nov-11 11:00N 44°35' E 022°02'2 3.8
2017-Nov-11 10:30N 44°33' E 022°02'2 4.0
2017-Nov-11 10:00N 44°32' E 022°04'2 3.9
2017-Nov-11 09:30N 44°30' E 022°05'2 4.0
2017-Nov-11 09:00N 44°29' E 022°08'2 4.0
2017-Nov-11 08:30N 44°28' E 022°10'2 3.8
2017-Nov-11 08:00N 44°30' E 022°12'3 4.1
2017-Nov-11 07:10N 44°33' E 022°14'1 4.3
2017-Nov-11 07:00N 44°34' E 022°14'6 4.1
2017-Nov-11 05:30N 44°39' E 022°18'4 4.2
2017-Nov-11 04:40N 44°41' E 022°23'1 4.7
2017-Nov-11 04:30N 44°41' E 022°24'2 4.5
2017-Nov-11 04:00N 44°43' E 022°26'2 4.0
2017-Nov-11 03:30N 44°42' E 022°29'2 4.4
2017-Nov-11 03:00N 44°41' E 022°31'1 1.6
2017-Nov-11 02:30N 44°40' E 022°31'0 0.3
2017-Nov-11 02:00N 44°40' E 022°32'0 0.0
2017-Nov-11 01:30N 44°40' E 022°32'0 0.1
2017-Nov-11 01:00N 44°40' E 022°32'0 0.4
2017-Nov-11 00:20N 44°40' E 022°32'0 0.0
2017-Nov-11 00:00N 44°40' E 022°32'1 1.6
2017-Nov-10 23:31N 44°39' E 022°33'0 0.2
2017-Nov-10 23:00N 44°39' E 022°33'0 0.0
2017-Nov-10 22:30N 44°39' E 022°33'0 0.0
2017-Nov-10 22:00N 44°39' E 022°33'0 0.0
2017-Nov-10 21:30N 44°39' E 022°33'0 0.0
2017-Nov-10 21:00N 44°39' E 022°33'0 0.0
2017-Nov-10 20:30N 44°39' E 022°33'0 0.0
2017-Nov-10 20:00N 44°39' E 022°33'0 0.0
2017-Nov-10 19:31N 44°39' E 022°33'1 1.3
2017-Nov-10 19:01N 44°39' E 022°33'2 3.1
2017-Nov-10 18:31N 44°38' E 022°35'1 1.4
2017-Nov-10 18:01N 44°38' E 022°36'1 2.8
2017-Nov-10 17:31N 44°37' E 022°38'2 3.2
2017-Nov-10 17:01N 44°37' E 022°40'2 3.5
2017-Nov-10 16:31N 44°36' E 022°42'2 3.6
2017-Nov-10 16:01N 44°35' E 022°44'2 3.7
2017-Nov-10 15:30N 44°34' E 022°45'2 3.2
2017-Nov-10 15:01N 44°32' E 022°45'2 3.3
2017-Nov-10 14:31N 44°31' E 022°43'2 3.4
2017-Nov-10 14:01N 44°31' E 022°41'2 3.8
2017-Nov-10 13:31N 44°32' E 022°38'2 3.6
2017-Nov-10 12:58N 44°33' E 022°36'2 3.6
2017-Nov-10 12:30N 44°32' E 022°34'2 4.0
2017-Nov-10 12:00N 44°30' E 022°34'2 3.9
2017-Nov-10 11:30N 44°29' E 022°32'2 4.0
2017-Nov-10 11:00N 44°29' E 022°29'1 2.7
2017-Nov-10 10:30N 44°28' E 022°28'2 4.0
2017-Nov-10 10:01N 44°26' E 022°29'2 3.9
2017-Nov-10 09:31N 44°24' E 022°30'2 3.9
2017-Nov-10 09:01N 44°22' E 022°31'2 4.0
2017-Nov-10 08:30N 44°20' E 022°32'2 4.0
2017-Nov-10 08:01N 44°19' E 022°33'1 1.8
2017-Nov-10 07:31N 44°18' E 022°34'0 0.4
2017-Nov-10 07:01N 44°18' E 022°34'1 2.0
2017-Nov-10 06:31N 44°18' E 022°36'2 3.0
2017-Nov-10 06:01N 44°17' E 022°38'1 2.8
2017-Nov-10 05:31N 44°17' E 022°40'2 2.9
2017-Nov-10 04:57N 44°16' E 022°41'1 3.2
2017-Nov-10 04:31N 44°15' E 022°41'1 2.9
2017-Nov-10 04:01N 44°13' E 022°40'1 2.7
2017-Nov-10 03:30N 44°12' E 022°42'1 2.9
2017-Nov-10 03:01N 44°12' E 022°44'1 2.3
2017-Nov-10 02:31N 44°11' E 022°45'1 2.8
2017-Nov-10 02:01N 44°11' E 022°47'2 3.4
2017-Nov-10 01:31N 44°09' E 022°48'2 3.2
2017-Nov-10 01:01N 44°09' E 022°50'1 2.8
2017-Nov-10 00:30N 44°08' E 022°52'2 3.1
2017-Nov-10 00:00N 44°07' E 022°54'1 2.6
2017-Nov-09 23:31N 44°06' E 022°55'1 2.6
2017-Nov-09 23:01N 44°06' E 022°57'2 3.2
2017-Nov-09 22:30N 44°06' E 022°59'2 3.2
2017-Nov-09 22:01N 44°05' E 023°01'2 3.0
2017-Nov-09 21:30N 44°04' E 023°03'1 2.8
2017-Nov-09 21:01N 44°03' E 023°02'1 2.7
2017-Nov-09 20:30N 44°02' E 023°02'1 2.6
2017-Nov-09 20:01N 44°01' E 023°01'1 2.9
2017-Nov-09 19:31N 44°00' E 022°59'1 2.9
2017-Nov-09 19:00N 44°00' E 022°57'1 2.9
2017-Nov-09 18:31N 43°60' E 022°55'1 2.9
2017-Nov-09 18:00N 43°59' E 022°53'2 3.2
2017-Nov-09 17:31N 43°57' E 022°52'2 3.4
2017-Nov-09 17:01N 43°56' E 022°52'1 2.4
2017-Nov-09 16:29N 43°55' E 022°51'1 2.4
2017-Nov-09 16:01N 43°54' E 022°51'1 2.9
2017-Nov-09 15:30N 43°52' E 022°51'2 3.0
2017-Nov-09 15:01N 43°51' E 022°51'2 3.5
2017-Nov-09 14:30N 43°50' E 022°54'2 3.3
2017-Nov-09 14:00N 43°49' E 022°56'2 3.1
2017-Nov-09 13:31N 43°49' E 022°58'1 2.9
2017-Nov-09 13:01N 43°49' E 022°60'2 3.1
2017-Nov-09 12:29N 43°48' E 023°02'1 2.5
2017-Nov-09 11:59N 43°48' E 023°04'2 2.4
2017-Nov-09 11:06N 43°48' E 023°07'0 2.9
2017-Nov-09 11:00N 43°48' E 023°07'4 2.0
2017-Nov-09 08:53N 43°50' E 023°12'1 2.0
2017-Nov-09 08:29N 43°50' E 023°13'0 0.2
2017-Nov-09 08:01N 43°50' E 023°13'0 0.3
2017-Nov-09 06:37N 43°50' E 023°14'0 0.3
2017-Nov-09 06:24N 43°50' E 023°14'1 0.2
2017-Nov-08 23:06N 43°50' E 023°12'0 2.4
2017-Nov-08 23:00N 43°50' E 023°13'1 2.3
2017-Nov-08 22:28N 43°50' E 023°14'1 2.1
2017-Nov-08 21:57N 43°51' E 023°16'0 0.1
2017-Nov-08 21:30N 43°51' E 023°16'1 2.1
2017-Nov-08 21:00N 43°51' E 023°17'1 2.5
2017-Nov-08 20:30N 43°51' E 023°19'1 2.8
2017-Nov-08 20:00N 43°51' E 023°21'1 2.8
2017-Nov-08 19:28N 43°51' E 023°23'1 2.7
2017-Nov-08 19:00N 43°51' E 023°25'  

Dump ship's entire track history